Nyac, Alaska
Current Conditions -  °F | °C
As of 4:56 AM on Friday 31 Oct 2014 (Local Time) from PALG Reporting Station
Clear Clear  
Wind Chill:   Ceiling: Unl
Heat Index: 10°   Visibility: 10mi
Dew Point:   Wind: 6mph
Humidity: 88%   Direction: NA
Pressure: 29.4"   Gusts: NA
Location:  61°N, 159.94°W
Report Text: PALG 311256Z AUTO VRB05KT 10SM CLR M12/M14 A2940 RMK AO2 TSNO T11221138 SLP961 $
Loading
Personal Weather Stations






























Interactive Weather Map
Tropical Storm Tracking
New forecast layout! Learn more

10-Day Weather Forecast

Advertisements
Track Severe Weather on mobile